createdAt,value
2018-09-25T00:00:09.398Z,3.20
2018-09-25T00:01:09.368Z,2.90
2018-09-25T00:02:09.321Z,2.80
2018-09-25T00:03:19.681Z,2.30
2018-09-25T00:04:09.262Z,2.50
2018-09-25T00:05:09.185Z,2.40
2018-09-25T00:06:09.149Z,2.40
2018-09-25T00:07:09.138Z,2.50
2018-09-25T00:08:09.070Z,2.60
2018-09-25T00:09:09.057Z,2.60
2018-09-25T00:10:08.985Z,2.90
2018-09-25T00:11:08.934Z,3.20
2018-09-25T00:12:08.891Z,3.10
2018-09-25T00:13:08.882Z,2.90
2018-09-25T00:14:08.840Z,2.90
2018-09-25T00:15:08.786Z,2.90
2018-09-25T00:16:08.711Z,2.60
2018-09-25T00:17:08.781Z,3.00
2018-09-25T00:18:08.643Z,2.70
2018-09-25T00:19:08.603Z,3.20
2018-09-25T00:20:08.532Z,2.80
2018-09-25T00:21:08.501Z,3.00
2018-09-25T00:22:08.446Z,3.20
2018-09-25T00:23:08.395Z,2.70
2018-09-25T00:24:08.393Z,2.80
2018-09-25T00:25:08.318Z,2.90
2018-09-25T00:26:08.281Z,2.70
2018-09-25T00:27:08.230Z,2.60
2018-09-25T00:28:08.225Z,2.50
2018-09-25T00:29:08.145Z,2.60
2018-09-25T00:30:08.128Z,2.90
2018-09-25T00:31:08.077Z,2.70
2018-09-25T00:32:08.039Z,2.90
2018-09-25T00:33:07.976Z,2.80
2018-09-25T00:34:07.950Z,2.70
2018-09-25T00:35:07.899Z,2.90
2018-09-25T00:36:07.842Z,2.90
2018-09-25T00:37:07.803Z,2.70
2018-09-25T00:38:07.758Z,3.30
2018-09-25T00:39:07.785Z,3.10
2018-09-25T00:40:07.693Z,3.00
2018-09-25T00:41:07.633Z,2.90
2018-09-25T00:42:07.595Z,3.20
2018-09-25T00:43:07.561Z,2.80
2018-09-25T00:44:07.530Z,2.70
2018-09-25T00:45:07.465Z,2.90
2018-09-25T00:46:07.411Z,2.80
2018-09-25T00:47:07.394Z,2.90
2018-09-25T00:48:07.313Z,2.50
2018-09-25T00:49:07.325Z,2.80
2018-09-25T00:50:07.237Z,3.00
2018-09-25T00:51:07.194Z,2.70
2018-09-25T00:52:07.174Z,2.70
2018-09-25T00:53:07.107Z,2.90
2018-09-25T00:54:07.102Z,3.10
2018-09-25T00:55:07.022Z,2.90
2018-09-25T00:56:06.994Z,2.80
2018-09-25T00:57:06.944Z,2.80
2018-09-25T00:58:06.899Z,2.90
2018-09-25T00:59:06.886Z,2.90
2018-09-25T01:00:06.801Z,2.70
2018-09-25T01:01:06.747Z,2.80
2018-09-25T01:02:06.717Z,3.10
2018-09-25T01:03:06.668Z,3.30
2018-09-25T01:04:06.668Z,2.90
2018-09-25T01:05:06.577Z,3.00
2018-09-25T01:06:06.563Z,2.90
2018-09-25T01:07:06.499Z,3.20
2018-09-25T01:08:06.461Z,3.10
2018-09-25T01:09:06.437Z,3.00
2018-09-25T01:10:06.373Z,2.70
2018-09-25T01:11:06.332Z,3.20
2018-09-25T01:12:06.291Z,3.20
2018-09-25T01:13:06.229Z,3.40
2018-09-25T01:14:06.228Z,3.10
2018-09-25T01:15:06.141Z,3.30
2018-09-25T01:16:06.093Z,3.80
2018-09-25T01:17:06.059Z,3.70
2018-09-25T01:18:06.013Z,3.60
2018-09-25T01:19:05.997Z,3.30
2018-09-25T01:20:05.923Z,2.90
2018-09-25T01:21:05.883Z,2.90
2018-09-25T01:22:05.853Z,3.00
2018-09-25T01:23:05.803Z,3.10
2018-09-25T01:24:05.777Z,2.60
2018-09-25T01:25:05.699Z,2.80
2018-09-25T01:26:05.671Z,2.70
2018-09-25T01:27:05.623Z,3.00
2018-09-25T01:28:05.567Z,2.80
2018-09-25T01:29:05.551Z,2.80
2018-09-25T01:30:05.507Z,3.30
2018-09-25T01:31:05.453Z,3.10
2018-09-25T01:32:05.427Z,3.20
2018-09-25T01:33:05.352Z,3.50
2018-09-25T01:34:05.339Z,2.90
2018-09-25T01:35:05.277Z,2.80
2018-09-25T01:36:05.237Z,2.70
2018-09-25T01:37:05.195Z,2.80
2018-09-25T01:38:05.155Z,3.20
2018-09-25T01:39:05.139Z,3.30
2018-09-25T01:40:05.064Z,3.50
2018-09-25T01:41:05.016Z,3.40
2018-09-25T01:42:04.978Z,3.00
2018-09-25T01:43:04.933Z,2.90
2018-09-25T01:44:04.906Z,3.20
2018-09-25T01:45:04.839Z,2.90
2018-09-25T01:46:04.791Z,3.20
2018-09-25T01:47:04.765Z,3.00
2018-09-25T01:48:04.707Z,2.90
2018-09-25T01:49:04.711Z,3.20
2018-09-25T01:50:04.620Z,2.80
2018-09-25T01:51:04.575Z,3.00
2018-09-25T01:52:04.529Z,3.10
2018-09-25T01:53:04.517Z,3.10
2018-09-25T01:54:04.495Z,3.00
2018-09-25T01:55:04.410Z,2.80
2018-09-25T01:56:04.392Z,3.10
2018-09-25T01:57:04.322Z,2.80
2018-09-25T01:58:04.262Z,3.10
2018-09-25T01:59:04.247Z,3.00
2018-09-25T02:00:04.187Z,3.00
2018-09-25T02:01:04.151Z,3.20
2018-09-25T02:02:04.100Z,3.40
2018-09-25T02:03:04.080Z,3.80
2018-09-25T02:04:04.033Z,3.20
2018-09-25T02:05:03.956Z,3.50
2018-09-25T02:06:03.946Z,3.90
2018-09-25T02:07:03.887Z,4.10
2018-09-25T02:08:03.842Z,3.80
2018-09-25T02:09:03.804Z,4.10
2018-09-25T02:10:03.742Z,3.70
2018-09-25T02:11:03.695Z,3.70
2018-09-25T02:12:03.666Z,3.90
2018-09-25T02:13:03.631Z,3.60
2018-09-25T02:14:03.594Z,4.00
2018-09-25T02:15:03.526Z,4.00
2018-09-25T02:16:03.482Z,3.90
2018-09-25T02:17:03.439Z,3.70
2018-09-25T02:18:03.405Z,3.80
2018-09-25T02:19:03.389Z,3.50
2018-09-25T02:20:03.309Z,3.70
2018-09-25T02:21:03.260Z,3.60
2018-09-25T02:22:03.213Z,3.70
2018-09-25T02:23:03.166Z,3.70
2018-09-25T02:24:03.152Z,3.50
2018-09-25T02:25:03.086Z,3.70
2018-09-25T02:26:03.046Z,3.60
2018-09-25T02:27:02.996Z,3.60
2018-09-25T02:28:02.969Z,3.40
2018-09-25T02:29:02.937Z,3.60
2018-09-25T02:30:02.863Z,3.80
2018-09-25T02:31:02.828Z,3.60
2018-09-25T02:32:02.784Z,4.00
2018-09-25T02:33:02.734Z,3.40
2018-09-25T02:34:02.726Z,3.60
2018-09-25T02:35:02.655Z,4.30
2018-09-25T02:36:02.609Z,4.90
2018-09-25T02:37:02.564Z,3.50
2018-09-25T02:38:02.515Z,3.80
2018-09-25T02:39:02.517Z,4.70
2018-09-25T02:40:02.439Z,5.20
2018-09-25T02:41:02.396Z,5.00
2018-09-25T02:42:02.359Z,3.90
2018-09-25T02:43:02.312Z,4.20
2018-09-25T02:44:02.265Z,3.90
2018-09-25T02:45:02.244Z,3.90
2018-09-25T02:46:02.184Z,4.10
2018-09-25T02:47:02.131Z,4.30
2018-09-25T02:48:02.098Z,3.80
2018-09-25T02:49:02.029Z,3.90
2018-09-25T02:50:01.992Z,4.10
2018-09-25T02:51:01.974Z,4.00
2018-09-25T02:52:01.901Z,4.70
2018-09-25T02:53:01.857Z,4.90
2018-09-25T02:54:01.819Z,4.50
2018-09-25T02:55:01.767Z,4.30
2018-09-25T02:56:01.727Z,4.40
2018-09-25T02:57:01.756Z,4.30
2018-09-25T02:58:01.639Z,4.10
2018-09-25T02:59:01.597Z,4.10
2018-09-25T03:00:01.557Z,4.10
2018-09-25T03:01:01.497Z,4.20
2018-09-25T03:02:01.487Z,3.80
2018-09-25T03:03:01.422Z,4.40
2018-09-25T03:04:01.371Z,4.20
2018-09-25T03:05:01.328Z,4.10
2018-09-25T03:06:01.328Z,4.20
2018-09-25T03:07:01.266Z,4.50
2018-09-25T03:08:01.213Z,4.50
2018-09-25T03:09:01.147Z,4.10
2018-09-25T03:10:01.114Z,4.20
2018-09-25T03:11:01.084Z,4.10
2018-09-25T03:12:01.057Z,4.00
2018-09-25T03:13:00.983Z,4.60
2018-09-25T03:14:00.939Z,4.60
2018-09-25T03:15:00.904Z,4.40
2018-09-25T03:16:00.859Z,4.00
2018-09-25T03:17:00.833Z,3.80
2018-09-25T03:18:00.823Z,3.80
2018-09-25T03:19:00.731Z,4.60
2018-09-25T03:20:00.678Z,4.70
2018-09-25T03:21:00.633Z,4.50
2018-09-25T03:22:00.612Z,4.80
2018-09-25T03:23:00.562Z,5.20
2018-09-25T03:24:00.573Z,5.30
2018-09-25T03:25:00.484Z,4.70
2018-09-25T03:26:00.418Z,4.80
2018-09-25T03:27:00.378Z,4.20
2018-09-25T03:28:00.426Z,4.20
2018-09-25T03:29:00.288Z,4.30
2018-09-25T03:30:00.257Z,4.10
2018-09-25T03:31:00.206Z,4.30
2018-09-25T03:32:00.177Z,4.70
2018-09-25T03:33:00.102Z,4.50
2018-09-25T03:34:00.065Z,4.70
2018-09-25T03:35:00.017Z,4.80
2018-09-25T03:36:00.003Z,5.30
2018-09-25T03:36:59.974Z,5.30
2018-09-25T03:37:59.928Z,5.20
2018-09-25T03:38:59.867Z,5.10
2018-09-25T03:39:59.809Z,5.50
2018-09-25T03:40:59.755Z,4.70
2018-09-25T03:41:59.701Z,4.70
2018-09-25T03:42:59.664Z,4.30
2018-09-25T03:43:59.638Z,4.50
2018-09-25T03:44:59.569Z,4.60
2018-09-25T03:45:59.525Z,4.30
2018-09-25T03:46:59.500Z,4.30
2018-09-25T03:47:59.447Z,4.50
2018-09-25T03:48:59.464Z,4.50
2018-09-25T03:49:59.365Z,4.40
2018-09-25T03:50:59.317Z,5.10
2018-09-25T03:51:59.281Z,5.30
2018-09-25T03:52:59.221Z,5.60
2018-09-25T03:53:59.191Z,5.80
2018-09-25T03:54:59.131Z,5.50
2018-09-25T03:55:59.085Z,5.80
2018-09-25T03:56:59.050Z,5.60
2018-09-25T03:57:59.063Z,5.40
2018-09-25T03:58:58.961Z,5.60
2018-09-25T03:59:58.914Z,5.20
2018-09-25T04:00:58.872Z,5.00
2018-09-25T04:01:58.831Z,5.00
2018-09-25T04:02:58.806Z,5.50
2018-09-25T04:03:58.768Z,5.30
2018-09-25T04:04:58.697Z,5.50
2018-09-25T04:05:58.659Z,5.70
2018-09-25T04:06:58.629Z,4.80
2018-09-25T04:07:58.561Z,5.00
2018-09-25T04:08:58.557Z,5.50
2018-09-25T04:09:58.483Z,5.70
2018-09-25T04:10:58.455Z,5.20
2018-09-25T04:11:58.389Z,5.10
2018-09-25T04:12:58.351Z,5.80
2018-09-25T04:13:58.323Z,5.70
2018-09-25T04:14:58.302Z,6.00
2018-09-25T04:15:58.218Z,6.30
2018-09-25T04:16:58.165Z,6.20
2018-09-25T04:17:58.121Z,6.50
2018-09-25T04:18:58.121Z,6.40
2018-09-25T04:19:58.037Z,6.30
2018-09-25T04:20:57.991Z,6.90
2018-09-25T04:21:57.951Z,6.40
2018-09-25T04:22:57.921Z,6.40
2018-09-25T04:23:57.898Z,7.00
2018-09-25T04:24:57.803Z,7.40
2018-09-25T04:25:57.792Z,8.20
2018-09-25T04:26:57.722Z,7.70
2018-09-25T04:27:57.678Z,7.50
2018-09-25T04:28:57.681Z,6.80
2018-09-25T04:29:57.596Z,5.90
2018-09-25T04:30:57.545Z,5.90
2018-09-25T04:31:57.500Z,6.40
2018-09-25T04:32:57.482Z,5.70
2018-09-25T04:33:57.454Z,5.60
2018-09-25T04:34:57.385Z,5.70
2018-09-25T04:35:57.334Z,6.30
2018-09-25T04:36:57.296Z,7.10
2018-09-25T04:37:57.266Z,6.30
2018-09-25T04:38:57.210Z,6.30
2018-09-25T04:39:57.155Z,6.10
2018-09-25T04:40:57.113Z,6.20
2018-09-25T04:41:57.078Z,5.70
2018-09-25T04:42:57.058Z,6.30
2018-09-25T04:43:57.024Z,6.30
2018-09-25T04:44:56.941Z,6.30
2018-09-25T04:45:56.887Z,5.90
2018-09-25T04:46:56.854Z,5.90
2018-09-25T04:47:56.869Z,6.10
2018-09-25T04:48:56.765Z,7.10
2018-09-25T04:49:56.722Z,6.90
2018-09-25T04:50:56.655Z,7.40
2018-09-25T04:51:56.612Z,6.60
2018-09-25T04:52:56.615Z,7.00
2018-09-25T04:53:56.550Z,6.90
2018-09-25T04:54:56.491Z,6.10
2018-09-25T04:55:56.449Z,6.30
2018-09-25T04:56:56.457Z,6.10
2018-09-25T04:57:56.424Z,6.20
2018-09-25T04:58:56.309Z,6.00
2018-09-25T04:59:56.258Z,6.60
2018-09-25T05:00:56.233Z,7.10
2018-09-25T05:01:56.182Z,6.60
2018-09-25T05:02:56.166Z,6.40
2018-09-25T05:03:56.092Z,7.20
2018-09-25T05:04:56.057Z,7.10
2018-09-25T05:05:56.005Z,6.80
2018-09-25T05:06:55.974Z,6.80
2018-09-25T05:07:55.940Z,7.70
2018-09-25T05:08:55.869Z,7.20
2018-09-25T05:09:55.823Z,7.20
2018-09-25T05:10:55.790Z,7.70
2018-09-25T05:11:55.733Z,7.10
2018-09-25T05:12:55.712Z,7.10
2018-09-25T05:13:55.655Z,6.80
2018-09-25T05:14:55.624Z,7.00
2018-09-25T05:15:55.571Z,6.30
2018-09-25T05:16:55.515Z,6.40
2018-09-25T05:17:55.539Z,7.30
2018-09-25T05:18:55.448Z,7.30
2018-09-25T05:19:55.392Z,7.50
2018-09-25T05:20:55.347Z,7.50
2018-09-25T05:21:55.293Z,7.30
2018-09-25T05:22:55.270Z,7.00
2018-09-25T05:23:55.210Z,6.70
2018-09-25T05:24:55.212Z,6.80
2018-09-25T05:25:55.123Z,6.60
2018-09-25T05:26:55.075Z,6.70
2018-09-25T05:27:55.053Z,6.50
2018-09-25T05:28:54.978Z,8.20
2018-09-25T05:29:54.972Z,8.10
2018-09-25T05:30:54.892Z,7.10
2018-09-25T05:31:54.859Z,6.80
2018-09-25T05:32:54.839Z,6.50
2018-09-25T05:33:54.764Z,7.40
2018-09-25T05:34:54.724Z,7.00
2018-09-25T05:35:54.674Z,7.70
2018-09-25T05:36:54.626Z,7.60
2018-09-25T05:37:54.605Z,7.40
2018-09-25T05:38:54.556Z,7.60
2018-09-25T05:39:54.497Z,7.00
2018-09-25T05:40:54.495Z,5.60
2018-09-25T05:41:54.402Z,4.60
2018-09-25T05:42:54.388Z,4.20
2018-09-25T05:43:54.333Z,4.20
2018-09-25T05:44:54.279Z,4.10
2018-09-25T05:45:54.251Z,4.40
2018-09-25T05:46:54.178Z,4.00
2018-09-25T05:47:54.168Z,4.00
2018-09-25T05:48:54.202Z,4.30
2018-09-25T05:49:54.067Z,4.00
2018-09-25T05:50:54.009Z,4.30
2018-09-25T05:51:53.966Z,4.20
2018-09-25T05:52:53.954Z,4.60
2018-09-25T05:53:53.898Z,4.50
2018-09-25T05:54:53.864Z,3.70
2018-09-25T05:55:53.794Z,4.20
2018-09-25T05:56:53.794Z,4.50
2018-09-25T05:57:53.733Z,4.60
2018-09-25T05:58:53.659Z,4.30
2018-09-25T05:59:53.624Z,3.90
2018-09-25T06:00:53.609Z,4.10
2018-09-25T06:01:53.537Z,4.40
2018-09-25T06:02:53.516Z,3.70
2018-09-25T06:03:53.448Z,3.70
2018-09-25T06:04:53.403Z,3.70
2018-09-25T06:05:53.346Z,4.00
2018-09-25T06:06:53.320Z,3.70
2018-09-25T06:07:53.330Z,3.40
2018-09-25T06:08:53.242Z,4.10
2018-09-25T06:09:53.171Z,3.60
2018-09-25T06:10:53.141Z,4.50
2018-09-25T06:11:53.097Z,4.40
2018-09-25T06:12:53.086Z,4.40
2018-09-25T06:13:53.029Z,4.80
2018-09-25T06:14:52.985Z,4.30
2018-09-25T06:15:52.990Z,4.20
2018-09-25T06:16:52.902Z,4.30
2018-09-25T06:17:55.749Z,4.10
2018-09-25T06:18:52.811Z,4.20
2018-09-25T06:19:52.750Z,3.70
2018-09-25T06:20:52.708Z,4.10
2018-09-25T06:21:52.669Z,4.20
2018-09-25T06:22:52.662Z,4.00
2018-09-25T06:23:52.586Z,4.20
2018-09-25T06:24:52.567Z,4.60
2018-09-25T06:25:52.498Z,4.50
2018-09-25T06:26:52.454Z,4.40
2018-09-25T06:27:52.440Z,4.80
2018-09-25T06:28:52.459Z,4.70
2018-09-25T06:29:52.327Z,5.00
2018-09-25T06:30:52.286Z,4.40
2018-09-25T06:31:52.238Z,4.30
2018-09-25T06:32:52.230Z,4.60
2018-09-25T06:33:52.175Z,4.60
2018-09-25T06:34:52.168Z,4.30
2018-09-25T06:35:52.103Z,4.70
2018-09-25T06:36:52.033Z,4.30
2018-09-25T06:37:52.045Z,4.40
2018-09-25T06:38:51.964Z,4.10
2018-09-25T06:39:51.921Z,4.40
2018-09-25T06:40:51.934Z,4.50
2018-09-25T06:41:51.842Z,4.50
2018-09-25T06:42:51.792Z,4.20
2018-09-25T06:43:51.801Z,4.30
2018-09-25T06:44:51.753Z,4.40
2018-09-25T06:45:51.686Z,4.80
2018-09-25T06:46:51.642Z,4.50
2018-09-25T06:47:51.630Z,4.40
2018-09-25T06:49:01.815Z,4.40
2018-09-25T06:49:51.520Z,4.70
2018-09-25T06:50:51.516Z,4.70
2018-09-25T06:51:51.442Z,4.90
2018-09-25T06:52:51.416Z,4.50
2018-09-25T06:53:51.361Z,4.40
2018-09-25T06:54:51.443Z,4.40
2018-09-25T06:55:51.288Z,4.50
2018-09-25T06:56:51.246Z,4.40
2018-09-25T06:57:51.235Z,4.50
2018-09-25T06:58:51.160Z,4.90
2018-09-25T06:59:51.123Z,4.80
2018-09-25T07:00:51.146Z,5.00
2018-09-25T07:01:51.054Z,4.60
2018-09-25T07:02:51.041Z,4.70
2018-09-25T07:03:50.978Z,4.90
2018-09-25T07:04:50.934Z,4.80
2018-09-25T07:05:50.903Z,5.50
2018-09-25T07:06:50.867Z,5.60
2018-09-25T07:07:50.841Z,6.10
2018-09-25T07:08:50.792Z,6.00
2018-09-25T07:09:50.831Z,6.20
2018-09-25T07:10:50.717Z,5.60
2018-09-25T07:11:50.685Z,6.30
2018-09-25T07:12:50.665Z,6.30
2018-09-25T07:13:50.619Z,5.90
2018-09-25T07:14:50.578Z,5.70
2018-09-25T07:15:50.530Z,5.50
2018-09-25T07:16:50.487Z,5.40
2018-09-25T07:17:50.515Z,5.60
2018-09-25T07:18:50.442Z,5.30
2018-09-25T07:19:50.382Z,5.50
2018-09-25T07:20:50.341Z,5.80
2018-09-25T07:21:50.298Z,5.30
2018-09-25T07:22:50.352Z,5.60
2018-09-25T07:23:50.238Z,5.40
2018-09-25T07:24:50.254Z,6.20
2018-09-25T07:25:50.173Z,6.20
2018-09-25T07:26:50.117Z,6.00
2018-09-25T07:27:50.114Z,6.20
2018-09-25T07:28:50.042Z,6.20
2018-09-25T07:29:50.012Z,6.50
2018-09-25T07:30:49.982Z,6.20
2018-09-25T07:31:49.936Z,6.90
2018-09-25T07:32:49.934Z,6.80
2018-09-25T07:33:49.859Z,7.00
2018-09-25T07:34:49.836Z,6.70
2018-09-25T07:35:49.789Z,7.00
2018-09-25T07:36:49.773Z,6.80
2018-09-25T07:37:49.751Z,6.50
2018-09-25T07:38:49.693Z,6.80
2018-09-25T07:39:49.709Z,6.80
2018-09-25T07:40:49.613Z,6.70
2018-09-25T07:41:49.606Z,6.60
2018-09-25T07:42:49.584Z,7.40
2018-09-25T07:43:49.516Z,7.40
2018-09-25T07:44:49.465Z,7.20
2018-09-25T07:45:49.442Z,7.00
2018-09-25T07:46:49.425Z,7.40
2018-09-25T07:47:49.411Z,7.00
2018-09-25T07:48:49.342Z,6.90
2018-09-25T07:49:49.312Z,7.40
2018-09-25T07:50:49.272Z,7.40
2018-09-25T07:51:49.235Z,8.20
2018-09-25T07:52:49.226Z,8.40
2018-09-25T07:53:49.160Z,8.70
2018-09-25T07:54:49.122Z,8.20
2018-09-25T07:55:49.092Z,7.80
2018-09-25T07:56:49.066Z,8.40
2018-09-25T07:57:49.047Z,8.10
2018-09-25T07:58:48.991Z,8.70
2018-09-25T07:59:48.952Z,8.30
2018-09-25T08:00:48.944Z,8.90
2018-09-25T08:01:48.883Z,8.30
2018-09-25T08:02:48.887Z,8.50
2018-09-25T08:03:48.813Z,8.30
2018-09-25T08:04:48.768Z,8.80
2018-09-25T08:05:48.743Z,8.40
2018-09-25T08:06:48.709Z,8.50
2018-09-25T08:07:48.700Z,8.60
2018-09-25T08:08:48.666Z,8.70
2018-09-25T08:09:48.650Z,8.30
2018-09-25T08:10:48.557Z,8.40
2018-09-25T08:11:48.549Z,8.80
2018-09-25T08:12:48.534Z,8.40
2018-09-25T08:13:48.465Z,8.70
2018-09-25T08:14:48.431Z,8.90
2018-09-25T08:15:48.396Z,9.00
2018-09-25T08:16:48.367Z,9.70
2018-09-25T08:17:48.354Z,9.10
2018-09-25T08:18:48.306Z,8.80
2018-09-25T08:19:48.293Z,8.90
2018-09-25T08:20:48.252Z,9.30
2018-09-25T08:21:48.192Z,8.60
2018-09-25T08:22:48.178Z,9.30
2018-09-25T08:23:48.126Z,8.90
2018-09-25T08:24:48.079Z,9.10
2018-09-25T08:25:48.057Z,8.70
2018-09-25T08:26:48.028Z,9.00
2018-09-25T08:27:48.009Z,9.50
2018-09-25T08:28:47.957Z,9.30
2018-09-25T08:29:47.965Z,9.10
2018-09-25T08:30:47.891Z,8.60
2018-09-25T08:31:47.896Z,9.30
2018-09-25T08:32:47.860Z,8.90
2018-09-25T08:33:47.791Z,9.00
2018-09-25T08:34:47.747Z,8.90
2018-09-25T08:35:47.709Z,9.20
2018-09-25T08:36:47.681Z,9.30
2018-09-25T08:37:47.682Z,9.50
2018-09-25T08:38:47.677Z,9.10
2018-09-25T08:39:47.582Z,9.10
2018-09-25T08:40:47.550Z,9.30
2018-09-25T08:41:47.519Z,9.60
2018-09-25T08:42:58.403Z,9.30
2018-09-25T08:43:47.475Z,9.40
2018-09-25T08:44:47.429Z,9.10
2018-09-25T08:45:47.432Z,9.20
2018-09-25T08:46:47.368Z,9.30
2018-09-25T08:47:47.324Z,8.90
2018-09-25T08:48:47.286Z,9.00
2018-09-25T08:49:47.304Z,9.10
2018-09-25T08:50:47.215Z,8.90
2018-09-25T08:51:47.204Z,7.90
2018-09-25T08:52:47.209Z,7.80
2018-09-25T08:53:47.158Z,8.50
2018-09-25T08:54:47.065Z,7.90
2018-09-25T08:55:47.037Z,7.90
2018-09-25T08:56:47.013Z,8.10
2018-09-25T08:57:46.999Z,8.30
2018-09-25T08:58:46.939Z,8.80
2018-09-25T08:59:46.905Z,8.60
2018-09-25T09:00:46.980Z,8.40
2018-09-25T09:01:46.915Z,8.80
2018-09-25T09:02:46.833Z,9.10
2018-09-25T09:03:46.815Z,7.90
2018-09-25T09:04:46.737Z,8.50
2018-09-25T09:05:46.706Z,7.50
2018-09-25T09:06:46.663Z,8.10
2018-09-25T09:07:57.397Z,7.80
2018-09-25T09:08:46.606Z,8.10
2018-09-25T09:09:46.605Z,7.80
2018-09-25T09:10:46.536Z,7.60
2018-09-25T09:11:46.499Z,8.20
2018-09-25T09:12:46.522Z,7.50
2018-09-25T09:13:46.441Z,7.20
2018-09-25T09:14:46.404Z,7.70
2018-09-25T09:15:46.367Z,7.10
2018-09-25T09:16:46.348Z,7.50
2018-09-25T09:17:46.336Z,6.70
2018-09-25T09:18:46.277Z,6.80
2018-09-25T09:19:46.308Z,7.20
2018-09-25T09:20:46.215Z,7.00
2018-09-25T09:21:46.189Z,7.90
2018-09-25T09:22:46.187Z,7.30
2018-09-25T09:23:46.128Z,7.70
2018-09-25T09:24:46.084Z,7.50
2018-09-25T09:25:46.041Z,7.70
2018-09-25T09:26:46.019Z,5.50
2018-09-25T09:27:45.980Z,6.00
2018-09-25T09:28:45.966Z,6.40
2018-09-25T09:29:45.919Z,6.30
2018-09-25T09:30:45.889Z,6.80
2018-09-25T09:31:45.854Z,6.80
2018-09-25T09:32:45.824Z,6.70
2018-09-25T09:33:45.816Z,7.10
2018-09-25T09:34:45.760Z,6.70
2018-09-25T09:35:45.725Z,6.60
2018-09-25T09:36:45.686Z,6.70
2018-09-25T09:37:45.661Z,6.70
2018-09-25T09:38:45.627Z,7.60
2018-09-25T09:39:45.618Z,6.90
2018-09-25T09:40:45.595Z,6.60
2018-09-25T09:41:45.753Z,7.10
2018-09-25T09:42:45.490Z,7.10
2018-09-25T09:43:45.456Z,7.00
2018-09-25T09:44:45.460Z,7.20
2018-09-25T09:45:45.394Z,6.70
2018-09-25T09:46:45.355Z,6.30
2018-09-25T09:47:45.322Z,6.30
2018-09-25T09:48:45.289Z,6.70
2018-09-25T09:49:45.255Z,6.00
2018-09-25T09:50:45.262Z,6.10
2018-09-25T09:51:45.196Z,5.70
2018-09-25T09:52:45.174Z,5.90
2018-09-25T09:53:45.166Z,5.40
2018-09-25T09:54:45.094Z,5.10
2018-09-25T09:55:45.099Z,4.30
2018-09-25T09:56:45.033Z,3.80
2018-09-25T09:57:45.016Z,3.80
2018-09-25T09:58:45.005Z,4.00
2018-09-25T09:59:44.944Z,3.90
2018-09-25T10:00:44.937Z,3.90
2018-09-25T10:01:44.867Z,4.60
2018-09-25T10:02:44.844Z,5.10
2018-09-25T10:03:44.829Z,5.40
2018-09-25T10:04:44.790Z,5.00
2018-09-25T10:05:44.765Z,4.80
2018-09-25T10:06:44.727Z,4.60
2018-09-25T10:07:44.673Z,4.90
2018-09-25T10:08:44.642Z,5.60
2018-09-25T10:09:44.619Z,4.90
2018-09-25T10:10:44.608Z,4.40
2018-09-25T10:11:44.554Z,4.20
2018-09-25T10:12:44.518Z,2.70
2018-09-25T10:13:44.504Z,2.90
2018-09-25T10:14:44.458Z,3.70
2018-09-25T10:15:44.449Z,3.50
2018-09-25T10:16:44.392Z,3.70
2018-09-25T10:17:54.416Z,3.90
2018-09-25T10:18:44.360Z,4.10
2018-09-25T10:19:44.323Z,4.00
2018-09-25T10:20:44.302Z,3.80
2018-09-25T10:21:44.247Z,3.40
2018-09-25T10:22:44.207Z,3.20
2018-09-25T10:23:44.177Z,3.80
2018-09-25T10:24:44.147Z,3.80
2018-09-25T10:25:44.118Z,3.60
2018-09-25T10:26:44.098Z,3.30
2018-09-25T10:27:44.043Z,3.10
2018-09-25T10:28:44.020Z,2.90
2018-09-25T10:29:43.994Z,3.30
2018-09-25T10:30:43.955Z,3.20
2018-09-25T10:31:43.949Z,3.10
2018-09-25T10:32:43.899Z,2.90
2018-09-25T10:33:43.897Z,2.80
2018-09-25T10:34:43.844Z,2.80
2018-09-25T10:35:43.795Z,3.10
2018-09-25T10:36:43.793Z,3.00
2018-09-25T10:37:43.774Z,3.00
2018-09-25T10:38:43.708Z,3.40
2018-09-25T10:39:43.692Z,3.30
2018-09-25T10:40:43.672Z,3.10
2018-09-25T10:41:43.617Z,3.30
2018-09-25T10:42:43.624Z,3.10
2018-09-25T10:43:43.563Z,3.70
2018-09-25T10:44:43.540Z,3.00
2018-09-25T10:45:43.481Z,3.00
2018-09-25T10:46:43.497Z,2.60
2018-09-25T10:47:43.422Z,2.60
2018-09-25T10:48:43.380Z,2.50
2018-09-25T10:49:43.369Z,2.70
2018-09-25T10:50:43.325Z,2.40
2018-09-25T10:51:43.291Z,2.50
2018-09-25T10:52:43.292Z,2.40
2018-09-25T10:53:43.246Z,2.90
2018-09-25T10:54:43.205Z,2.60
2018-09-25T10:55:43.190Z,2.70
2018-09-25T10:56:43.127Z,2.70
2018-09-25T10:57:43.124Z,2.60
2018-09-25T10:58:43.074Z,3.00
2018-09-25T10:59:43.033Z,2.90
2018-09-25T11:00:43.013Z,2.90
2018-09-25T11:01:42.983Z,3.00
2018-09-25T11:02:42.985Z,2.90
2018-09-25T11:03:42.916Z,2.70
2018-09-25T11:04:42.925Z,2.60
2018-09-25T11:05:42.838Z,2.90
2018-09-25T11:06:42.807Z,2.50
2018-09-25T11:07:42.788Z,2.20
2018-09-25T11:08:42.785Z,2.40
2018-09-25T11:09:42.701Z,2.30
2018-09-25T11:10:42.677Z,2.20
2018-09-25T11:11:42.651Z,2.40
2018-09-25T11:12:42.621Z,2.30
2018-09-25T11:13:42.620Z,2.30
2018-09-25T11:14:42.558Z,2.30
2018-09-25T11:15:42.541Z,2.30
2018-09-25T11:16:42.493Z,2.20
2018-09-25T11:17:42.512Z,2.60
2018-09-25T11:18:42.456Z,2.30
2018-09-25T11:19:42.405Z,2.20
2018-09-25T11:20:42.359Z,2.40
2018-09-25T11:21:42.344Z,2.40
2018-09-25T11:22:42.301Z,2.40
2018-09-25T11:23:42.287Z,2.30
2018-09-25T11:24:42.263Z,2.40
2018-09-25T11:25:42.231Z,2.20
2018-09-25T11:26:42.182Z,2.40
2018-09-25T11:27:42.150Z,2.30
2018-09-25T11:28:42.111Z,2.30
2018-09-25T11:29:52.128Z,2.30
2018-09-25T11:30:42.064Z,2.30
2018-09-25T11:31:42.038Z,2.00
2018-09-25T11:32:42.011Z,2.10
2018-09-25T11:33:41.987Z,2.40
2018-09-25T11:34:41.932Z,2.50
2018-09-25T11:35:41.907Z,2.60
2018-09-25T11:36:41.873Z,2.30
2018-09-25T11:37:41.866Z,2.10
2018-09-25T11:38:41.832Z,2.40
2018-09-25T11:39:41.771Z,2.20
2018-09-25T11:40:41.738Z,1.90
2018-09-25T11:41:41.709Z,2.00
2018-09-25T11:42:41.682Z,1.90
2018-09-25T11:43:41.656Z,1.90
2018-09-25T11:44:41.657Z,1.80
2018-09-25T11:45:41.591Z,1.70
2018-09-25T11:46:41.608Z,1.90
2018-09-25T11:47:41.527Z,1.90
2018-09-25T11:48:41.509Z,2.20
2018-09-25T11:49:41.541Z,2.20
2018-09-25T11:50:41.425Z,2.10
2018-09-25T11:51:41.393Z,1.80
2018-09-25T11:52:41.368Z,1.90
2018-09-25T11:53:41.363Z,2.30
2018-09-25T11:54:41.331Z,2.10
2018-09-25T11:55:41.281Z,1.90
2018-09-25T11:56:41.251Z,1.90
2018-09-25T11:57:41.212Z,2.10
2018-09-25T11:58:41.191Z,1.90
2018-09-25T11:59:41.168Z,2.00
2018-09-25T12:00:41.119Z,2.20
2018-09-25T12:01:41.088Z,2.20
2018-09-25T12:02:41.099Z,2.00
2018-09-25T12:03:41.024Z,1.80
2018-09-25T12:04:41.017Z,1.90
2018-09-25T12:05:40.969Z,1.90
2018-09-25T12:06:40.939Z,1.70
2018-09-25T12:07:40.915Z,1.80
2018-09-25T12:08:40.871Z,1.80
2018-09-25T12:09:40.843Z,1.60
2018-09-25T12:10:40.828Z,1.60
2018-09-25T12:11:40.792Z,1.60
2018-09-25T12:12:40.810Z,1.70
2018-09-25T12:13:40.762Z,1.70
2018-09-25T12:14:40.686Z,1.70
2018-09-25T12:15:40.680Z,1.30
2018-09-25T12:16:40.625Z,1.60
2018-09-25T12:17:40.613Z,1.80
2018-09-25T12:18:40.556Z,1.80
2018-09-25T12:19:40.539Z,1.50
2018-09-25T12:20:40.525Z,1.60
2018-09-25T12:21:40.491Z,1.80
2018-09-25T12:22:40.464Z,1.60
2018-09-25T12:23:40.424Z,1.70
2018-09-25T12:24:40.384Z,1.60
2018-09-25T12:25:40.365Z,1.90
2018-09-25T12:26:40.355Z,1.70
2018-09-25T12:27:40.322Z,1.60
2018-09-25T12:28:40.249Z,1.60
2018-09-25T12:29:40.226Z,1.90
2018-09-25T12:30:40.238Z,1.80
2018-09-25T12:31:40.145Z,1.80
2018-09-25T12:32:40.178Z,1.80
2018-09-25T12:33:40.103Z,1.60
2018-09-25T12:34:40.048Z,2.00
2018-09-25T12:35:40.073Z,1.90
2018-09-25T12:36:39.990Z,1.60
2018-09-25T12:37:40.140Z,1.80
2018-09-25T12:38:39.948Z,1.70
2018-09-25T12:39:39.887Z,1.60
2018-09-25T12:40:39.843Z,1.70
2018-09-25T12:41:39.847Z,1.90
2018-09-25T12:42:39.798Z,1.60
2018-09-25T12:43:39.745Z,1.60
2018-09-25T12:44:39.717Z,1.60
2018-09-25T12:45:39.681Z,1.50
2018-09-25T12:46:39.677Z,1.80
2018-09-25T12:47:39.665Z,1.70
2018-09-25T12:48:39.612Z,1.90
2018-09-25T12:49:39.566Z,1.90
2018-09-25T12:50:39.518Z,1.70
2018-09-25T12:51:39.523Z,1.70
2018-09-25T12:52:39.520Z,2.10
2018-09-25T12:53:39.421Z,1.90
2018-09-25T12:54:39.395Z,1.90
2018-09-25T12:55:39.340Z,1.80
2018-09-25T12:56:39.336Z,1.80
2018-09-25T12:57:39.289Z,1.70
2018-09-25T12:58:39.262Z,1.80
2018-09-25T12:59:39.243Z,1.90
2018-09-25T13:00:39.177Z,2.00
2018-09-25T13:01:39.175Z,1.80
2018-09-25T13:02:39.148Z,1.60
2018-09-25T13:03:39.084Z,1.70
2018-09-25T13:04:39.046Z,1.70
2018-09-25T13:05:39.003Z,1.60
2018-09-25T13:06:39.028Z,1.80
2018-09-25T13:07:38.937Z,1.70
2018-09-25T13:08:38.894Z,1.80
2018-09-25T13:09:38.899Z,1.80
2018-09-25T13:10:38.900Z,1.60
2018-09-25T13:11:38.835Z,1.50
2018-09-25T13:12:38.767Z,1.80
2018-09-25T13:13:38.733Z,1.80
2018-09-25T13:14:38.684Z,1.80
2018-09-25T13:15:38.647Z,1.90
2018-09-25T13:16:38.653Z,1.80
2018-09-25T13:17:38.572Z,1.70